createdAt,value
2023-08-24T03:42:47.075Z,94.00
2023-08-24T03:45:13.902Z,93.80
2023-08-24T03:47:40.973Z,94.30
2023-08-24T03:50:08.114Z,93.70
2023-08-24T03:52:34.991Z,93.60
2023-08-24T03:55:01.969Z,93.60
2023-08-24T03:57:29.010Z,93.70
2023-08-24T03:59:55.776Z,94.00
2023-08-24T04:02:22.626Z,94.40
2023-08-24T04:04:49.481Z,94.70
2023-08-24T04:07:16.757Z,94.70
2023-08-24T04:09:43.628Z,95.00
2023-08-24T04:12:10.485Z,95.60
2023-08-24T04:14:37.291Z,95.70
2023-08-24T04:17:04.571Z,96.20
2023-08-24T04:19:31.453Z,97.00
2023-08-24T04:21:58.238Z,96.90
2023-08-24T04:24:26.445Z,97.20
2023-08-24T04:26:53.352Z,97.10
2023-08-24T04:29:20.128Z,97.10
2023-08-24T04:31:46.950Z,97.40
2023-08-24T04:34:13.693Z,97.80
2023-08-24T04:36:40.480Z,98.00
2023-08-24T04:39:07.328Z,98.00
2023-08-24T04:41:34.194Z,98.00
2023-08-24T04:44:01.097Z,98.20
2023-08-24T04:46:28.025Z,98.10
2023-08-24T04:48:54.977Z,98.40
2023-08-24T04:51:21.898Z,98.10
2023-08-24T04:53:48.678Z,98.20
2023-08-24T04:56:15.983Z,98.20
2023-08-24T04:58:52.871Z,98.20
2023-08-24T05:01:20.099Z,97.50
2023-08-24T05:03:46.983Z,97.70
2023-08-24T05:06:13.866Z,97.80
2023-08-24T05:08:40.757Z,97.90
2023-08-24T05:11:14.856Z,97.80
2023-08-24T05:13:42.283Z,98.00
2023-08-24T05:16:10.344Z,97.50
2023-08-24T05:18:37.572Z,98.00
2023-08-24T05:21:04.663Z,97.80
2023-08-24T05:23:32.219Z,97.70
2023-08-24T05:25:59.386Z,97.70
2023-08-24T05:28:26.680Z,97.30
2023-08-24T05:30:53.872Z,97.50
2023-08-24T05:33:21.636Z,98.00
2023-08-24T05:35:48.818Z,97.30
2023-08-24T05:38:16.090Z,97.20
2023-08-24T05:40:48.548Z,97.20
2023-08-24T05:43:15.412Z,97.60
2023-08-24T05:45:45.057Z,97.20
2023-08-24T05:48:12.768Z,96.80
2023-08-24T05:50:43.649Z,96.50
2023-08-24T05:53:10.430Z,95.90
2023-08-24T05:55:37.248Z,95.90
2023-08-24T05:58:04.363Z,94.80
2023-08-24T06:00:31.264Z,95.40
2023-08-24T06:02:58.160Z,96.00
2023-08-24T06:05:25.095Z,96.10
2023-08-24T06:07:52.159Z,96.10
2023-08-24T06:10:19.324Z,96.50
2023-08-24T06:12:46.150Z,95.80
2023-08-24T06:15:14.682Z,95.70
2023-08-24T06:17:41.885Z,95.40
2023-08-24T06:20:11.703Z,95.80
2023-08-24T06:22:38.880Z,95.70
2023-08-24T06:25:06.318Z,96.10
2023-08-24T06:27:33.171Z,95.80
2023-08-24T06:29:59.997Z,96.10
2023-08-24T06:32:26.919Z,96.30
2023-08-24T06:34:55.320Z,96.70
2023-08-24T06:37:22.188Z,96.70
2023-08-24T06:39:49.971Z,96.60
2023-08-24T06:42:16.795Z,96.40
2023-08-24T06:44:43.761Z,96.30
2023-08-24T06:47:10.871Z,95.90
2023-08-24T06:49:37.681Z,95.70
2023-08-24T06:52:04.857Z,95.90
2023-08-24T06:54:31.668Z,95.70
2023-08-24T06:56:58.484Z,94.90
2023-08-24T06:59:25.683Z,94.30
2023-08-24T07:01:53.381Z,93.30
2023-08-24T07:04:20.456Z,93.00
2023-08-24T07:06:47.519Z,92.30
2023-08-24T07:09:14.380Z,91.30
2023-08-24T07:11:41.165Z,90.60
2023-08-24T07:14:08.033Z,88.20
2023-08-24T07:16:34.916Z,87.50
2023-08-24T07:19:01.719Z,84.90
2023-08-24T07:21:28.557Z,81.80
2023-08-24T07:23:55.487Z,82.20
2023-08-24T07:26:22.269Z,81.40
2023-08-24T07:28:49.194Z,80.30
2023-08-24T07:31:16.129Z,80.30
2023-08-24T07:33:46.126Z,81.10
2023-08-24T07:36:12.906Z,82.30
2023-08-24T07:38:39.661Z,82.40
2023-08-24T07:41:07.519Z,83.70
2023-08-24T07:43:35.272Z,82.00
2023-08-24T07:46:02.147Z,81.90
2023-08-24T07:48:31.222Z,83.40
2023-08-24T07:50:58.102Z,83.90
2023-08-24T07:53:25.034Z,85.50
2023-08-24T07:55:51.864Z,85.20
2023-08-24T07:58:18.692Z,86.40
2023-08-24T08:00:45.582Z,85.10
2023-08-24T08:03:12.503Z,85.60
2023-08-24T08:05:39.526Z,86.10
2023-08-24T08:08:06.534Z,86.20
2023-08-24T08:10:33.343Z,87.00
2023-08-24T08:13:00.202Z,85.60
2023-08-24T08:15:27.044Z,86.20
2023-08-24T08:17:54.103Z,85.10
2023-08-24T08:20:21.075Z,84.40
2023-08-24T08:22:47.976Z,83.50
2023-08-24T08:25:14.888Z,85.00
2023-08-24T08:27:41.726Z,85.50
2023-08-24T08:30:08.681Z,86.00
2023-08-24T08:32:35.495Z,86.00
2023-08-24T08:35:02.447Z,85.20
2023-08-24T08:37:29.505Z,84.50
2023-08-24T08:39:56.348Z,83.30
2023-08-24T08:42:23.234Z,83.40
2023-08-24T08:44:53.373Z,83.10
2023-08-24T08:47:21.364Z,82.00
2023-08-24T08:49:49.268Z,81.20
2023-08-24T08:52:16.186Z,80.50
2023-08-24T08:54:43.269Z,80.80
2023-08-24T08:57:11.131Z,79.90
2023-08-24T08:59:37.933Z,78.30
2023-08-24T09:02:05.017Z,77.80
2023-08-24T09:06:59.391Z,76.70
2023-08-24T09:09:27.265Z,75.50
2023-08-24T09:11:54.611Z,75.30
2023-08-24T09:14:21.442Z,74.30
2023-08-24T09:16:48.563Z,74.00
2023-08-24T09:19:15.453Z,72.70
2023-08-24T09:21:43.363Z,74.70
2023-08-24T09:24:11.855Z,75.20
2023-08-24T09:26:44.143Z,75.70
2023-08-24T09:29:14.868Z,74.60
2023-08-24T09:31:41.856Z,75.80
2023-08-24T09:34:08.758Z,75.30
2023-08-24T09:36:36.276Z,74.80
2023-08-24T09:39:06.290Z,75.60
2023-08-24T09:44:04.467Z,67.60
2023-08-24T09:46:31.338Z,67.90
2023-08-24T09:51:28.554Z,65.00
2023-08-24T09:53:58.185Z,59.90
2023-08-24T10:01:21.072Z,59.40
2023-08-24T10:03:48.896Z,61.70
2023-08-24T10:06:16.029Z,60.80
2023-08-24T10:08:48.633Z,57.80
2023-08-24T10:11:18.538Z,59.50
2023-08-24T10:13:50.389Z,59.80
2023-08-24T10:16:17.615Z,59.00
2023-08-24T10:18:44.937Z,61.10
2023-08-24T10:21:12.208Z,62.80
2023-08-24T10:23:40.388Z,63.80
2023-08-24T10:26:09.114Z,61.20
2023-08-24T10:28:36.405Z,57.40
2023-08-24T10:31:03.755Z,57.60
2023-08-24T10:33:31.046Z,59.00
2023-08-24T10:35:59.163Z,61.90
2023-08-24T10:38:29.951Z,63.60
2023-08-24T10:41:06.422Z,66.70
2023-08-24T10:46:02.008Z,60.80
2023-08-24T10:48:29.824Z,54.90
2023-08-24T10:51:15.086Z,56.90
2023-08-24T10:53:42.452Z,59.80
2023-08-24T10:56:13.365Z,64.20
2023-08-24T10:58:40.401Z,68.20
2023-08-24T11:01:07.338Z,72.10
2023-08-24T11:03:34.962Z,74.30
2023-08-24T11:06:02.089Z,79.00
2023-08-24T11:08:47.633Z,82.60
2023-08-24T11:14:01.667Z,89.90
2023-08-24T11:16:41.722Z,87.70
2023-08-24T11:19:09.746Z,89.20
2023-08-24T11:21:36.695Z,90.30
2023-08-24T11:24:03.565Z,89.20
2023-08-24T11:26:33.297Z,87.70
2023-08-24T11:29:01.618Z,88.90
2023-08-24T11:31:28.783Z,90.00
2023-08-24T11:33:56.974Z,88.70
2023-08-24T11:36:26.404Z,87.80
2023-08-24T11:38:54.348Z,89.40
2023-08-24T11:41:22.459Z,87.90
2023-08-24T11:43:51.743Z,87.40
2023-08-24T11:46:19.146Z,87.20
2023-08-24T11:48:46.680Z,84.90
2023-08-24T11:51:14.148Z,81.50
2023-08-24T11:53:45.982Z,80.50
2023-08-24T11:56:14.007Z,80.90
2023-08-24T11:58:41.534Z,82.70
2023-08-24T12:01:12.722Z,82.10
2023-08-24T12:03:40.145Z,81.60
2023-08-24T12:06:16.918Z,82.60
2023-08-24T12:08:44.674Z,82.50
2023-08-24T12:11:12.425Z,85.90
2023-08-24T12:13:39.205Z,87.10
2023-08-24T12:16:06.150Z,88.90
2023-08-24T12:18:37.857Z,89.90
2023-08-24T12:21:08.328Z,89.70
2023-08-24T12:23:36.366Z,91.70
2023-08-24T12:26:03.153Z,91.10
2023-08-24T12:28:30.422Z,91.90
2023-08-24T12:30:57.253Z,93.10
2023-08-24T12:33:27.919Z,91.30
2023-08-24T12:35:56.431Z,90.90
2023-08-24T12:38:23.688Z,91.70
2023-08-24T12:40:51.789Z,90.20
2023-08-24T12:43:18.684Z,90.70
2023-08-24T12:45:45.795Z,90.70
2023-08-24T12:48:12.718Z,90.30
2023-08-24T12:50:39.959Z,90.20
2023-08-24T12:53:09.450Z,91.30
2023-08-24T12:55:37.155Z,91.10
2023-08-24T12:58:04.915Z,91.70
2023-08-24T13:00:31.892Z,88.20
2023-08-24T13:02:58.940Z,87.10
2023-08-24T13:05:25.830Z,85.20
2023-08-24T13:07:53.211Z,84.20
2023-08-24T13:10:20.265Z,81.10
2023-08-24T13:12:47.075Z,78.70
2023-08-24T13:15:13.894Z,75.70
2023-08-24T13:17:40.803Z,73.40
2023-08-24T13:20:08.019Z,72.10
2023-08-24T13:25:01.891Z,62.80
2023-08-24T13:27:28.721Z,64.60
2023-08-24T13:29:57.996Z,68.70
2023-08-24T13:32:24.748Z,73.20
2023-08-24T13:34:51.654Z,77.00
2023-08-24T13:37:19.021Z,78.10
2023-08-24T13:39:46.057Z,79.50
2023-08-24T13:42:14.074Z,80.90
2023-08-24T13:44:40.937Z,83.30
2023-08-24T13:47:07.749Z,82.40
2023-08-24T13:49:40.397Z,81.90
2023-08-24T13:52:08.180Z,82.20
2023-08-24T13:54:35.143Z,82.50
2023-08-24T13:57:02.812Z,82.40
2023-08-24T13:59:30.128Z,82.00
2023-08-24T14:01:57.099Z,83.90
2023-08-24T14:04:24.081Z,83.60
2023-08-24T14:06:50.918Z,84.30
2023-08-24T14:09:17.956Z,82.90
2023-08-24T14:11:44.781Z,85.50
2023-08-24T14:14:11.728Z,84.40
2023-08-24T14:16:38.741Z,84.60
2023-08-24T14:19:06.060Z,84.90
2023-08-24T14:24:04.059Z,86.00
2023-08-24T14:26:30.970Z,86.40
2023-08-24T14:28:58.941Z,85.90
2023-08-24T14:31:27.216Z,86.90
2023-08-24T14:33:55.590Z,86.30
2023-08-24T14:36:22.715Z,86.20
2023-08-24T14:38:50.047Z,85.90
2023-08-24T14:41:17.199Z,85.60
2023-08-24T14:43:44.112Z,85.60
2023-08-24T14:46:11.244Z,85.70
2023-08-24T14:48:38.425Z,84.80
2023-08-24T14:51:05.332Z,84.00
2023-08-24T14:53:32.164Z,84.10
2023-08-24T14:55:59.688Z,83.70
2023-08-24T14:58:26.944Z,84.50
2023-08-24T15:00:54.710Z,83.30
2023-08-24T15:03:22.304Z,83.40
2023-08-24T15:06:05.324Z,85.60
2023-08-24T15:08:32.782Z,85.50
2023-08-24T15:11:00.189Z,84.00
2023-08-24T15:13:28.306Z,84.60
2023-08-24T15:15:56.234Z,85.70
2023-08-24T15:18:23.557Z,85.20
2023-08-24T15:20:50.818Z,85.70
2023-08-24T15:23:27.855Z,86.50
2023-08-24T15:25:58.841Z,86.80
2023-08-24T15:28:25.979Z,86.70
2023-08-24T15:30:52.841Z,86.80
2023-08-24T15:33:20.562Z,87.20
2023-08-24T15:35:48.137Z,87.00
2023-08-24T15:38:14.930Z,86.60
2023-08-24T15:40:43.520Z,87.10
2023-08-24T15:43:12.448Z,87.00
2023-08-24T15:45:39.371Z,87.50
2023-08-24T15:48:06.512Z,88.00
2023-08-24T15:50:33.240Z,88.10
2023-08-24T15:53:00.846Z,86.40
2023-08-24T15:55:31.700Z,87.60
2023-08-24T15:58:00.261Z,87.70
2023-08-24T16:00:27.029Z,87.80
2023-08-24T16:02:53.850Z,87.90
2023-08-24T16:05:20.735Z,88.40
2023-08-24T16:07:47.642Z,87.90
2023-08-24T16:10:14.472Z,87.90
2023-08-24T16:12:41.561Z,88.00
2023-08-24T16:15:08.767Z,88.60
2023-08-24T16:17:35.668Z,88.50
2023-08-24T16:20:04.042Z,88.00
2023-08-24T16:22:30.833Z,88.70
2023-08-24T16:24:57.627Z,89.00
2023-08-24T16:27:24.421Z,89.20
2023-08-24T16:29:51.247Z,89.90
2023-08-24T16:32:18.149Z,90.00
2023-08-24T16:34:44.929Z,89.80
2023-08-24T16:37:11.795Z,90.00
2023-08-24T16:39:38.643Z,90.20
2023-08-24T16:42:05.679Z,90.70
2023-08-24T16:44:32.502Z,90.60
2023-08-24T16:46:59.382Z,90.00
2023-08-24T16:49:26.270Z,90.90
2023-08-24T16:51:53.165Z,90.70
2023-08-24T16:54:19.942Z,90.90
2023-08-24T16:56:46.748Z,91.00
2023-08-24T16:59:13.625Z,91.00
2023-08-24T17:01:40.580Z,91.60
2023-08-24T17:04:08.926Z,91.80
2023-08-24T17:06:38.370Z,92.00
2023-08-24T17:09:06.479Z,91.90
2023-08-24T17:11:33.283Z,92.30
2023-08-24T17:14:00.156Z,92.40
2023-08-24T17:16:27.223Z,92.70
2023-08-24T17:18:54.079Z,93.20
2023-08-24T17:21:20.820Z,93.60
2023-08-24T17:23:47.595Z,93.70
2023-08-24T17:26:14.389Z,93.30
2023-08-24T17:28:41.158Z,93.30
2023-08-24T17:31:07.989Z,93.40
2023-08-24T17:33:35.088Z,93.10
2023-08-24T17:36:03.896Z,92.90
2023-08-24T17:38:32.726Z,93.00
2023-08-24T17:41:04.088Z,92.50
2023-08-24T17:43:31.329Z,92.60
2023-08-24T17:45:58.167Z,92.50
2023-08-24T17:48:25.109Z,92.90
2023-08-24T17:50:55.587Z,93.50
2023-08-24T17:53:27.021Z,93.20
2023-08-24T17:55:54.336Z,93.50
2023-08-24T17:58:21.848Z,94.00
2023-08-24T18:00:48.704Z,94.00
2023-08-24T18:03:15.642Z,93.70
2023-08-24T18:05:42.483Z,93.80
2023-08-24T18:08:09.670Z,93.70
2023-08-24T18:10:36.572Z,94.50
2023-08-24T18:13:03.974Z,94.10
2023-08-24T18:15:34.963Z,94.50
2023-08-24T18:18:02.203Z,94.60
2023-08-24T18:20:29.310Z,94.60
2023-08-24T18:22:56.296Z,94.10
2023-08-24T18:25:28.320Z,94.60
2023-08-24T18:27:55.621Z,94.30
2023-08-24T18:30:22.839Z,93.40
2023-08-24T18:32:49.903Z,94.30
2023-08-24T18:35:16.885Z,93.60
2023-08-24T18:37:43.777Z,93.10
2023-08-24T18:40:10.614Z,94.50
2023-08-24T18:42:38.158Z,95.10
2023-08-24T18:45:07.907Z,96.30
2023-08-24T18:47:35.216Z,97.60
2023-08-24T18:50:02.275Z,98.80
2023-08-24T18:52:29.633Z,98.90
2023-08-24T18:54:57.773Z,99.20
2023-08-24T18:57:24.584Z,99.50
2023-08-24T18:59:53.042Z,99.80
2023-08-24T19:02:21.881Z,99.90
2023-08-24T19:04:49.634Z,99.70
2023-08-24T19:07:16.578Z,99.60
2023-08-24T19:09:43.322Z,99.60
2023-08-24T19:12:10.077Z,99.80
2023-08-24T19:14:37.009Z,99.90
2023-08-24T19:17:08.446Z,99.90
2023-08-24T19:19:37.094Z,99.90
2023-08-24T19:22:03.997Z,99.90
2023-08-24T19:24:30.901Z,99.90
2023-08-24T19:26:58.145Z,99.90
2023-08-24T19:29:26.842Z,99.90
2023-08-24T19:31:53.776Z,99.90
2023-08-24T19:34:20.617Z,99.90
2023-08-24T19:36:47.519Z,99.90
2023-08-24T19:39:14.690Z,99.90
2023-08-24T19:41:54.172Z,99.90
2023-08-24T19:44:25.155Z,99.90
2023-08-24T19:46:52.005Z,99.90
2023-08-24T19:49:19.019Z,99.90
2023-08-24T19:51:46.316Z,99.90
2023-08-24T19:54:13.683Z,99.90
2023-08-24T19:56:40.616Z,99.90
2023-08-24T19:59:07.711Z,99.90
2023-08-24T20:01:35.063Z,99.90
2023-08-24T20:04:05.100Z,99.90
2023-08-24T20:06:32.236Z,99.90
2023-08-24T20:08:59.039Z,99.90
2023-08-24T20:11:32.414Z,99.90
2023-08-24T20:14:02.427Z,99.90
2023-08-24T20:16:29.310Z,99.90
2023-08-24T20:18:57.365Z,99.90
2023-08-24T20:21:25.165Z,99.90
2023-08-24T20:23:52.037Z,99.90
2023-08-24T20:26:18.877Z,99.90
2023-08-24T20:28:45.724Z,99.90
2023-08-24T20:31:12.605Z,99.90
2023-08-24T20:33:39.502Z,99.90
2023-08-24T20:36:06.435Z,99.90
2023-08-24T20:38:33.295Z,99.90
2023-08-24T20:41:06.118Z,99.90
2023-08-24T20:43:32.896Z,99.90
2023-08-24T20:45:59.823Z,99.90
2023-08-24T20:48:27.549Z,99.90
2023-08-24T20:51:02.942Z,99.90
2023-08-24T20:53:29.848Z,99.90
2023-08-24T20:55:56.639Z,99.90
2023-08-24T20:58:23.439Z,99.90
2023-08-24T21:00:50.330Z,99.90
2023-08-24T21:03:17.830Z,99.90
2023-08-24T21:05:44.752Z,99.90
2023-08-24T21:08:11.571Z,99.90
2023-08-24T21:10:38.303Z,99.90
2023-08-24T21:13:05.073Z,99.90
2023-08-24T21:15:34.476Z,99.90
2023-08-24T21:18:01.325Z,99.90
2023-08-24T21:20:28.431Z,99.90
2023-08-24T21:22:55.313Z,99.90
2023-08-24T21:25:22.388Z,99.90
2023-08-24T21:27:49.168Z,99.90
2023-08-24T21:30:16.016Z,99.90
2023-08-24T21:32:42.810Z,99.90
2023-08-24T21:35:09.928Z,99.90
2023-08-24T21:37:36.787Z,99.90
2023-08-24T21:40:03.972Z,99.90
2023-08-24T21:42:30.746Z,99.90
2023-08-24T21:44:57.688Z,99.90
2023-08-24T21:47:24.565Z,99.90
2023-08-24T21:49:51.403Z,99.90
2023-08-24T21:52:18.466Z,99.90
2023-08-24T21:54:45.441Z,99.90
2023-08-24T21:57:12.433Z,99.90
2023-08-24T21:59:39.282Z,99.90
2023-08-24T22:02:06.099Z,99.90
2023-08-24T22:04:33.113Z,99.90
2023-08-24T22:06:59.909Z,99.90
2023-08-24T22:09:26.744Z,99.90
2023-08-24T22:11:53.563Z,99.90
2023-08-24T22:14:21.409Z,99.90
2023-08-24T22:16:48.188Z,99.90
2023-08-24T22:19:26.037Z,99.90
2023-08-24T22:21:54.339Z,99.90
2023-08-24T22:24:21.112Z,99.90
2023-08-24T22:26:47.884Z,99.90
2023-08-24T22:29:14.728Z,99.90
2023-08-24T22:31:41.661Z,99.90
2023-08-24T22:34:08.526Z,99.90
2023-08-24T22:36:35.320Z,99.90
2023-08-24T22:39:04.278Z,99.90
2023-08-24T22:41:31.146Z,99.90
2023-08-24T22:43:57.990Z,99.90
2023-08-24T22:46:24.895Z,99.90
2023-08-24T22:48:51.876Z,99.90
2023-08-24T22:51:18.698Z,99.90
2023-08-24T22:53:45.428Z,99.90
2023-08-24T22:56:14.574Z,99.90
2023-08-24T22:58:41.409Z,99.90
2023-08-24T23:01:14.847Z,99.90
2023-08-24T23:03:41.615Z,99.90
2023-08-24T23:06:12.650Z,99.90
2023-08-24T23:08:39.444Z,99.90
2023-08-24T23:11:06.218Z,99.90
2023-08-24T23:13:33.010Z,99.90
2023-08-24T23:15:59.837Z,99.90
2023-08-24T23:18:26.632Z,99.90
2023-08-24T23:20:53.392Z,99.90
2023-08-24T23:23:20.197Z,99.90
2023-08-24T23:25:46.977Z,99.90
2023-08-24T23:28:13.770Z,99.90
2023-08-24T23:30:40.575Z,99.90
2023-08-24T23:33:08.441Z,99.90
2023-08-24T23:35:35.732Z,99.90
2023-08-24T23:38:02.714Z,99.90
2023-08-24T23:40:31.268Z,99.90
2023-08-24T23:42:58.146Z,99.90
2023-08-24T23:45:25.051Z,99.90
2023-08-24T23:47:52.092Z,99.90
2023-08-24T23:50:19.095Z,99.90
2023-08-24T23:52:45.960Z,99.90
2023-08-24T23:55:12.767Z,99.90
2023-08-24T23:57:39.624Z,99.90
